createdAt,value
2023-01-26T00:01:47.563Z,20.01
2023-01-26T00:06:51.687Z,20.03
2023-01-26T00:11:54.458Z,20.04
2023-01-26T00:16:57.270Z,20.07
2023-01-26T00:22:01.336Z,20.08
2023-01-26T00:27:04.130Z,20.11
2023-01-26T00:32:07.247Z,20.13
2023-01-26T00:37:11.411Z,20.15
2023-01-26T00:42:15.841Z,20.17
2023-01-26T00:47:19.022Z,20.18
2023-01-26T00:52:23.121Z,20.21
2023-01-26T00:57:26.503Z,20.22
2023-01-26T01:02:29.406Z,20.24
2023-01-26T01:07:33.549Z,20.26
2023-01-26T01:12:36.437Z,20.24
2023-01-26T01:17:39.196Z,20.25
2023-01-26T01:22:43.379Z,20.25
2023-01-26T01:27:46.887Z,20.24
2023-01-26T01:32:51.608Z,20.24
2023-01-26T01:37:55.792Z,20.24
2023-01-26T01:42:58.651Z,20.25
2023-01-26T01:48:02.423Z,20.19
2023-01-26T01:53:06.664Z,20.12
2023-01-26T01:58:10.213Z,20.11
2023-01-26T02:03:14.732Z,20.09
2023-01-26T02:08:19.585Z,20.04
2023-01-26T02:13:22.577Z,20.02
2023-01-26T02:18:25.463Z,19.98
2023-01-26T02:23:50.278Z,19.91
2023-01-26T02:28:54.495Z,19.90
2023-01-26T02:33:57.259Z,19.83
2023-01-26T02:39:13.711Z,19.76
2023-01-26T02:44:18.018Z,19.72
2023-01-26T02:49:38.515Z,19.66
2023-01-26T02:54:58.684Z,19.57
2023-01-26T03:00:02.868Z,19.49
2023-01-26T03:05:07.498Z,19.39
2023-01-26T03:10:13.446Z,19.37
2023-01-26T03:15:42.614Z,19.30
2023-01-26T03:21:03.505Z,19.32
2023-01-26T03:26:23.978Z,19.29
2023-01-26T03:31:28.221Z,19.19
2023-01-26T03:36:31.187Z,19.20
2023-01-26T03:41:52.782Z,19.11
2023-01-26T03:47:14.773Z,19.07
2023-01-26T03:52:35.322Z,19.02
2023-01-26T03:57:38.692Z,18.99
2023-01-26T04:03:00.483Z,18.98
2023-01-26T04:08:22.836Z,18.93
2023-01-26T04:13:47.010Z,18.92
2023-01-26T04:19:15.592Z,18.89
2023-01-26T04:24:21.767Z,18.84
2023-01-26T04:29:28.822Z,18.82
2023-01-26T04:34:33.055Z,18.73
2023-01-26T04:39:37.538Z,18.71
2023-01-26T04:44:41.526Z,18.69
2023-01-26T04:49:46.662Z,18.69
2023-01-26T04:54:51.379Z,18.64
2023-01-26T04:59:54.497Z,18.59
2023-01-26T05:04:58.773Z,18.56
2023-01-26T05:10:01.749Z,18.53
2023-01-26T05:15:29.239Z,18.49
2023-01-26T05:20:44.630Z,18.47
2023-01-26T05:25:52.907Z,18.45
2023-01-26T05:30:56.071Z,18.43
2023-01-26T05:36:04.401Z,18.40
2023-01-26T05:41:07.956Z,18.41
2023-01-26T05:46:24.212Z,18.39
2023-01-26T05:51:28.586Z,18.36
2023-01-26T05:56:31.761Z,18.33
2023-01-26T06:01:37.894Z,18.31
2023-01-26T06:06:44.569Z,18.26
2023-01-26T06:12:07.768Z,18.26
2023-01-26T06:17:22.649Z,18.24
2023-01-26T06:22:32.985Z,18.24
2023-01-26T06:27:35.766Z,18.22
2023-01-26T06:32:44.727Z,18.21
2023-01-26T06:37:51.369Z,18.19
2023-01-26T06:42:54.386Z,18.18
2023-01-26T06:47:57.240Z,18.17
2023-01-26T06:53:02.075Z,18.18
2023-01-26T06:58:27.710Z,18.15
2023-01-26T07:03:49.978Z,18.14
2023-01-26T07:08:54.188Z,18.13
2023-01-26T07:13:57.066Z,18.11
2023-01-26T07:18:59.845Z,18.09
2023-01-26T07:24:04.416Z,18.08
2023-01-26T07:29:07.388Z,18.07
2023-01-26T07:34:10.464Z,18.04
2023-01-26T07:39:14.621Z,18.03
2023-01-26T07:44:17.543Z,18.01
2023-01-26T07:49:20.366Z,18.00
2023-01-26T07:54:24.632Z,17.97
2023-01-26T07:59:27.460Z,17.98
2023-01-26T08:04:30.359Z,18.06
2023-01-26T08:09:34.522Z,18.26
2023-01-26T08:14:46.391Z,18.55
2023-01-26T08:19:49.652Z,18.71
2023-01-26T08:24:53.885Z,17.59
2023-01-26T08:29:56.652Z,14.55
2023-01-26T08:34:59.931Z,13.11
2023-01-26T08:40:04.341Z,13.66
2023-01-26T08:45:07.945Z,15.10
2023-01-26T08:50:11.980Z,15.98
2023-01-26T08:55:16.568Z,16.54
2023-01-26T09:00:20.067Z,16.95
2023-01-26T09:05:22.821Z,17.25
2023-01-26T09:10:27.107Z,17.52
2023-01-26T09:15:29.909Z,17.72
2023-01-26T09:20:32.669Z,17.91
2023-01-26T09:25:38.362Z,18.10
2023-01-26T09:30:41.336Z,18.22
2023-01-26T09:35:44.266Z,18.35
2023-01-26T09:40:52.540Z,18.46
2023-01-26T09:45:59.397Z,18.56
2023-01-26T09:51:03.512Z,18.65
2023-01-26T09:56:09.504Z,18.72
2023-01-26T10:01:16.123Z,18.80
2023-01-26T10:06:22.310Z,18.94
2023-01-26T10:11:44.604Z,18.96
2023-01-26T10:16:48.714Z,19.02
2023-01-26T10:21:51.861Z,19.13
2023-01-26T10:26:58.403Z,19.23
2023-01-26T10:32:01.203Z,19.27
2023-01-26T10:37:22.432Z,19.34
2023-01-26T10:42:27.599Z,19.37
2023-01-26T10:47:30.392Z,19.42
2023-01-26T10:52:33.401Z,19.44
2023-01-26T10:57:38.906Z,19.45
2023-01-26T11:02:41.718Z,19.49
2023-01-26T11:07:44.862Z,19.48
2023-01-26T11:12:49.189Z,19.56
2023-01-26T11:17:55.902Z,19.59
2023-01-26T11:23:00.085Z,19.57
2023-01-26T11:28:25.588Z,19.63
2023-01-26T11:33:31.090Z,19.69
2023-01-26T11:38:37.497Z,19.73
2023-01-26T11:43:52.696Z,19.77
2023-01-26T11:49:03.129Z,19.78
2023-01-26T11:54:29.535Z,19.79
2023-01-26T11:59:36.834Z,19.80
2023-01-26T12:04:45.465Z,19.84
2023-01-26T12:09:48.758Z,19.86
2023-01-26T12:14:54.780Z,19.87
2023-01-26T12:20:04.488Z,19.92
2023-01-26T12:25:27.444Z,19.92
2023-01-26T12:30:35.950Z,19.96
2023-01-26T12:35:49.535Z,19.96
2023-01-26T12:40:59.120Z,19.98
2023-01-26T12:46:03.295Z,20.00
2023-01-26T12:51:07.343Z,20.02
2023-01-26T12:56:13.246Z,20.04
2023-01-26T13:01:17.961Z,20.08
2023-01-26T13:06:22.103Z,20.06
2023-01-26T13:11:45.359Z,20.09
2023-01-26T13:16:49.575Z,20.10
2023-01-26T13:21:52.322Z,20.12
2023-01-26T13:26:55.297Z,20.14
2023-01-26T13:32:00.505Z,20.20
2023-01-26T13:37:06.144Z,20.21
2023-01-26T13:42:16.930Z,20.21
2023-01-26T13:47:23.582Z,20.25
2023-01-26T13:52:26.806Z,20.22
2023-01-26T13:57:30.607Z,20.29
2023-01-26T14:02:36.096Z,20.31
2023-01-26T14:07:39.988Z,20.30
2023-01-26T14:12:43.610Z,20.35
2023-01-26T14:17:50.347Z,20.46
2023-01-26T14:23:13.728Z,20.51
2023-01-26T14:28:17.379Z,20.51
2023-01-26T14:33:21.497Z,20.51
2023-01-26T14:38:24.294Z,20.53
2023-01-26T14:43:27.810Z,20.56
2023-01-26T14:48:33.546Z,20.60
2023-01-26T14:53:36.287Z,20.62
2023-01-26T14:58:41.350Z,20.78
2023-01-26T15:03:45.455Z,20.85
2023-01-26T15:08:56.471Z,20.86
2023-01-26T15:13:59.367Z,20.91
2023-01-26T15:19:04.717Z,21.00
2023-01-26T15:24:07.645Z,21.09
2023-01-26T15:29:19.674Z,21.16
2023-01-26T15:34:32.425Z,21.21
2023-01-26T15:39:35.373Z,21.30
2023-01-26T15:44:38.212Z,21.43
2023-01-26T15:49:42.914Z,21.52
2023-01-26T15:54:45.724Z,21.52
2023-01-26T15:59:48.555Z,21.54
2023-01-26T16:04:52.695Z,21.50
2023-01-26T16:09:55.462Z,21.60
2023-01-26T16:14:59.350Z,21.60
2023-01-26T16:20:03.533Z,21.61
2023-01-26T16:25:13.647Z,21.65
2023-01-26T16:30:17.323Z,21.75
2023-01-26T16:35:22.818Z,21.85
2023-01-26T16:40:25.560Z,21.83
2023-01-26T16:45:28.449Z,21.85
2023-01-26T16:50:32.678Z,21.90
2023-01-26T16:55:35.504Z,21.95
2023-01-26T17:00:38.293Z,22.03
2023-01-26T17:05:42.451Z,22.13
2023-01-26T17:10:59.859Z,22.15
2023-01-26T17:16:05.023Z,22.19
2023-01-26T17:21:09.165Z,22.17
2023-01-26T17:26:12.870Z,22.16
2023-01-26T17:31:17.699Z,22.04
2023-01-26T17:36:22.199Z,22.02
2023-01-26T17:41:25.121Z,22.00
2023-01-26T17:46:27.915Z,21.96
2023-01-26T17:51:32.074Z,21.85
2023-01-26T17:56:34.974Z,21.88
2023-01-26T18:01:37.733Z,21.96
2023-01-26T18:06:41.867Z,21.93
2023-01-26T18:11:44.662Z,21.86
2023-01-26T18:16:47.592Z,21.82
2023-01-26T18:21:51.733Z,21.76
2023-01-26T18:26:54.522Z,21.81
2023-01-26T18:31:57.532Z,21.79
2023-01-26T18:37:01.715Z,21.76
2023-01-26T18:42:04.671Z,21.75
2023-01-26T18:47:07.624Z,21.75
2023-01-26T18:52:11.842Z,21.71
2023-01-26T18:57:14.658Z,21.65
2023-01-26T19:02:17.514Z,21.66
2023-01-26T19:07:21.877Z,21.66
2023-01-26T19:12:24.917Z,21.64
2023-01-26T19:17:27.927Z,21.63
2023-01-26T19:22:32.030Z,21.61
2023-01-26T19:27:34.904Z,21.60
2023-01-26T19:32:37.649Z,21.59
2023-01-26T19:37:41.856Z,21.59
2023-01-26T19:42:44.866Z,21.61
2023-01-26T19:47:47.956Z,21.59
2023-01-26T19:52:52.061Z,21.56
2023-01-26T19:57:54.868Z,21.56
2023-01-26T20:02:57.696Z,21.54
2023-01-26T20:08:01.867Z,21.52
2023-01-26T20:13:04.872Z,21.49
2023-01-26T20:18:07.836Z,21.45
2023-01-26T20:23:11.965Z,21.45
2023-01-26T20:28:14.801Z,21.44
2023-01-26T20:33:17.734Z,21.45
2023-01-26T20:38:21.882Z,21.42
2023-01-26T20:43:25.001Z,21.43
2023-01-26T20:48:27.781Z,21.44
2023-01-26T20:53:32.088Z,21.45
2023-01-26T20:58:34.836Z,21.43
2023-01-26T21:03:38.055Z,21.43
2023-01-26T21:08:42.225Z,21.42
2023-01-26T21:13:45.550Z,21.41
2023-01-26T21:18:49.285Z,21.42
2023-01-26T21:23:53.603Z,21.37
2023-01-26T21:28:57.145Z,21.35
2023-01-26T21:34:00.061Z,21.34
2023-01-26T21:39:04.851Z,21.32
2023-01-26T21:44:08.513Z,21.33
2023-01-26T21:49:11.610Z,21.30
2023-01-26T21:54:15.868Z,21.35
2023-01-26T21:59:19.066Z,21.33
2023-01-26T22:04:23.622Z,21.31
2023-01-26T22:09:28.292Z,21.29
2023-01-26T22:14:31.137Z,21.28
2023-01-26T22:19:33.888Z,21.25
2023-01-26T22:24:38.022Z,21.22
2023-01-26T22:29:40.796Z,21.18
2023-01-26T22:34:43.675Z,21.17
2023-01-26T22:39:49.006Z,21.14
2023-01-26T22:44:51.819Z,21.14
2023-01-26T22:49:54.550Z,21.11
2023-01-26T22:54:58.694Z,21.08
2023-01-26T23:00:02.509Z,21.08
2023-01-26T23:05:05.987Z,21.04
2023-01-26T23:10:11.349Z,21.05
2023-01-26T23:15:14.462Z,21.06
2023-01-26T23:20:17.704Z,21.03
2023-01-26T23:25:50.681Z,21.03
2023-01-26T23:30:54.078Z,21.09
2023-01-26T23:35:56.906Z,21.03
2023-01-26T23:41:01.338Z,21.08
2023-01-26T23:46:04.909Z,21.02
2023-01-26T23:51:08.587Z,21.03
2023-01-26T23:56:14.849Z,21.02
